createdAt,value
2023-03-17T18:09:53.728Z,8.70
2023-03-17T18:16:30.514Z,9.40
2023-03-17T19:32:37.021Z,12.70
2023-03-17T19:35:09.331Z,13.70
2023-03-17T19:37:47.429Z,12.00
2023-03-17T19:40:15.759Z,12.00
2023-03-17T19:42:42.837Z,11.10
2023-03-17T19:45:10.181Z,12.00
2023-03-17T19:47:37.001Z,13.10
2023-03-17T19:50:04.152Z,11.60
2023-03-17T19:52:31.011Z,11.50
2023-03-17T19:54:58.160Z,11.80
2023-03-17T19:57:25.221Z,11.30
2023-03-17T19:59:52.758Z,11.60
2023-03-17T20:02:20.372Z,11.50
2023-03-17T20:04:48.693Z,11.70
2023-03-17T20:07:18.961Z,11.60
2023-03-17T20:09:49.126Z,11.50
2023-03-17T20:12:16.409Z,10.70
2023-03-17T20:14:43.526Z,13.30
2023-03-17T20:17:11.635Z,12.30
2023-03-17T20:19:38.983Z,11.70
2023-03-17T20:22:06.849Z,11.60
2023-03-17T20:24:34.768Z,11.70
2023-03-17T20:27:02.938Z,11.90
2023-03-17T20:29:31.352Z,11.90
2023-03-17T20:31:58.485Z,11.70
2023-03-17T20:34:25.477Z,12.10
2023-03-17T20:36:52.278Z,12.20
2023-03-17T20:39:19.463Z,11.80
2023-03-17T20:41:51.173Z,12.50
2023-03-17T20:44:19.121Z,11.60
2023-03-17T20:46:47.782Z,11.80
2023-03-17T20:49:16.972Z,11.60
2023-03-17T20:51:49.655Z,11.80
2023-03-17T20:54:17.492Z,12.30
2023-03-17T20:56:45.380Z,12.50
2023-03-17T20:59:13.077Z,13.20
2023-03-17T21:01:40.059Z,12.40
2023-03-17T21:04:08.604Z,12.30
2023-03-17T21:06:36.904Z,14.40
2023-03-17T21:09:04.985Z,12.30
2023-03-17T21:11:31.970Z,11.10
2023-03-17T21:13:58.950Z,11.50
2023-03-17T21:16:28.025Z,11.20
2023-03-17T21:18:55.561Z,12.40
2023-03-17T21:21:24.365Z,11.90
2023-03-17T21:23:51.308Z,13.00
2023-03-17T21:26:19.181Z,12.50
2023-03-17T21:28:48.473Z,12.30
2023-03-17T21:31:16.721Z,12.20
2023-03-17T21:33:44.618Z,14.20
2023-03-17T21:36:11.510Z,12.80
2023-03-17T21:38:38.476Z,12.40
2023-03-17T21:41:28.327Z,13.40
2023-03-17T21:43:55.397Z,13.50
2023-03-17T21:46:22.228Z,13.20
2023-03-17T21:48:49.450Z,12.80
2023-03-17T21:51:16.437Z,13.20
2023-03-17T21:53:44.268Z,13.50
2023-03-17T21:56:12.524Z,14.20
2023-03-17T21:58:39.908Z,12.80
2023-03-17T22:01:07.263Z,13.10
2023-03-17T22:03:36.152Z,14.10
2023-03-17T22:06:05.022Z,14.40
2023-03-17T22:08:32.236Z,13.20
2023-03-17T22:11:07.359Z,12.90
2023-03-17T22:13:34.566Z,13.60
2023-03-17T22:16:01.858Z,12.60
2023-03-17T22:18:28.753Z,12.80
2023-03-17T22:20:57.310Z,13.90
2023-03-17T22:23:25.340Z,13.70
2023-03-17T22:25:52.526Z,13.10
2023-03-17T22:28:19.533Z,13.90
2023-03-17T22:30:46.351Z,14.00
2023-03-17T22:33:13.716Z,13.70
2023-03-17T22:35:41.107Z,13.20
2023-03-17T22:38:08.574Z,13.70
2023-03-17T22:40:37.650Z,12.80
2023-03-17T22:43:04.708Z,13.10
2023-03-17T22:45:31.660Z,14.10
2023-03-17T22:47:58.564Z,12.90
2023-03-17T22:50:25.733Z,12.60
2023-03-17T22:52:52.655Z,13.20
2023-03-17T22:55:19.685Z,13.10
2023-03-17T22:57:46.920Z,14.20
2023-03-17T23:00:16.858Z,15.60
2023-03-17T23:02:44.696Z,13.70
2023-03-17T23:05:13.220Z,13.70
2023-03-17T23:07:50.432Z,13.60
2023-03-17T23:10:24.386Z,13.00
2023-03-17T23:12:51.781Z,13.70
2023-03-17T23:15:20.456Z,14.20
2023-03-17T23:17:47.300Z,13.80
2023-03-17T23:20:14.879Z,13.90
2023-03-17T23:22:41.810Z,13.00
2023-03-17T23:25:08.902Z,13.40
2023-03-17T23:27:38.176Z,13.20
2023-03-17T23:30:06.110Z,13.50
2023-03-17T23:32:40.058Z,13.80
2023-03-17T23:35:08.135Z,13.50
2023-03-17T23:37:35.741Z,13.30
2023-03-17T23:40:04.121Z,14.70
2023-03-17T23:42:30.885Z,14.40
2023-03-17T23:44:58.286Z,14.20
2023-03-17T23:47:26.132Z,14.20
2023-03-17T23:49:53.419Z,14.10
2023-03-17T23:52:21.522Z,13.20
2023-03-17T23:54:48.871Z,13.10
2023-03-17T23:57:15.712Z,13.60
2023-03-17T23:59:43.171Z,14.00
